EGKB/BQH METAR and TAF weather

Enter ICAO airport designator
Station Type Date Time Source
EGKB METAR 2020/11/28 20:20 UTC NOAA

EGKB 282020Z 08009KT 1600 BR OVC002 09/09 Q1021


Station Type Date Time Source
EGKB Decoded METAR 2020/11/28 20:20 UTC NOAA

Biggin Hill , United Kingdom (EGKB) 51-19N 000-02E
Nov 28, 2020 - 03:20 PM EST / 2020.11.28 2020 UTC
Wind: from the E (080 degrees) at 10 MPH (9 KT):0
Visibility: less than 1 mile:0
Sky conditions: overcast
Weather: mist
Temperature: 48 F (9 C)
Dew Point: 48 F (9 C)
Relative Humidity: 100%
Pressure (altimeter): 30.15 in. Hg (1021 hPa)
ob: EGKB 282020Z 08009KT 1600 BR OVC002 09/09 Q1021
cycle: 20

Station Type Date Time Source
EGKB TAF 2020/08/09 21:40 UTC NOAA

TAF EGKB 092127Z 0921/1021 CNL

Example: see airport list